Newhaven, United Kingdom
Current Conditions -  °F | °C
As of 5:20 PM on Monday 22 Dec 2014 (Local Time) from EGKA Reporting Station
Broken Clouds Broken Clouds  
Wind Chill: 54°   Ceiling: 1800
Heat Index: 54°   Visibility: 4mi
Dew Point: 48°   Wind: 21mph
Humidity: 82%   Direction: 240°WSW
Pressure: 30.12"   Gusts: 33mph
Location:  50.8°N, 0.06°E
Report Text: EGKA 221720Z 24018G29KT 7000 SCT012 BKN018 12/09 Q1020
Loading
Personal Weather Stations






























Interactive Weather Map New forecast layout! Learn more

10-Day Weather Forecast

Advertisements
Track Severe Weather on mobile